Time;durP1;ratioP1;P1;durP2;ratioP2;P2;SDS_P1;SDS_P2;PMS_P1;PMS_P2;Temp;Humidity;BMP_temperature;BMP_pressure;BME280_temperature;BME280_humidity;BME280_pressure;Samples;Min_cycle;Max_cycle;Signal;HPM_P1;HPM_P2
2022/12/08 00:02:32;;;;;;;68.07;25.52;;;;;;;;;;5099877;28;20023;-76
2022/12/08 00:11:26;;;;;;;69.85;26.98;;;;;;;;;;5115111;28;20108;-75
2022/12/08 00:14:12;;;;;;;66.47;25.88;;;;;;;;;;5114357;28;20023;-75
2022/12/08 00:16:58;;;;;;;69.68;26.55;;;;;;;;;;5115273;28;20023;-75
2022/12/08 00:19:44;;;;;;;59.33;24.23;;;;;;;;;;5098857;28;20023;-74
2022/12/08 00:22:31;;;;;;;66.93;24.45;;;;;;;;;;5099801;28;20034;-74
2022/12/08 00:25:16;;;;;;;68.88;26.58;;;;;;;;;;5115407;28;20015;-74
2022/12/08 00:28:02;;;;;;;67.43;26.27;;;;;;;;;;5114378;28;20108;-75
2022/12/08 00:30:47;;;;;;;66.93;27.10;;;;;;;;;;5114817;28;20045;-74
2022/12/08 00:33:33;;;;;;;62.88;26.48;;;;;;;;;;5114609;28;20047;-74
2022/12/08 00:36:19;;;;;;;62.55;25.52;;;;;;;;;;5114270;28;20028;-74
2022/12/08 00:39:04;;;;;;;68.75;27.35;;;;;;;;;;5114918;28;20372;-74
2022/12/08 00:44:54;;;;;;;58.72;25.65;;;;;;;;;;5119284;28;20023;-75
2022/12/08 00:47:40;;;;;;;62.75;26.73;;;;;;;;;;5103629;28;20455;-74
2022/12/08 00:50:25;;;;;;;68.80;26.90;;;;;;;;;;5118680;28;20034;-75
2022/12/08 00:53:11;;;;;;;70.88;28.50;;;;;;;;;;5118409;28;20016;-74
2022/12/08 00:55:56;;;;;;;66.30;27.45;;;;;;;;;;5118479;28;20077;-74
2022/12/08 00:58:42;;;;;;;58.40;26.90;;;;;;;;;;5104240;28;20024;-75
2022/12/08 01:01:28;;;;;;;57.40;25.98;;;;;;;;;;5118558;28;20098;-74
2022/12/08 01:04:14;;;;;;;68.07;27.50;;;;;;;;;;5103358;28;20027;-74
2022/12/08 01:07:00;;;;;;;63.40;26.48;;;;;;;;;;5118264;28;20355;-74
2022/12/08 01:09:45;;;;;;;65.05;26.40;;;;;;;;;;5103662;28;20049;-75
2022/12/08 01:12:31;;;;;;;64.95;28.13;;;;;;;;;;5103184;28;20034;-75
2022/12/08 01:15:16;;;;;;;65.43;26.73;;;;;;;;;;5118105;28;20102;-76
2022/12/08 01:18:02;;;;;;;70.43;28.40;;;;;;;;;;5117215;28;20027;-74
2022/12/08 01:20:48;;;;;;;65.40;27.30;;;;;;;;;;5118871;28;20088;-74
2022/12/08 01:23:33;;;;;;;62.70;26.70;;;;;;;;;;5103362;28;20368;-75
2022/12/08 01:26:19;;;;;;;65.55;27.08;;;;;;;;;;5118593;28;20008;-74
2022/12/08 01:29:05;;;;;;;64.25;25.92;;;;;;;;;;5102713;28;20072;-75
2022/12/08 01:31:50;;;;;;;70.82;28.27;;;;;;;;;;5102642;28;20023;-75
2022/12/08 01:34:36;;;;;;;67.68;27.08;;;;;;;;;;5117571;28;20027;-76
2022/12/08 01:37:21;;;;;;;68.95;27.92;;;;;;;;;;5118023;28;20055;-75
2022/12/08 01:40:07;;;;;;;77.30;28.63;;;;;;;;;;5117794;28;20374;-75
2022/12/08 01:42:53;;;;;;;65.35;26.63;;;;;;;;;;5103504;28;20045;-74
2022/12/08 01:45:38;;;;;;;68.38;26.77;;;;;;;;;;5102766;28;20411;-74
2022/12/08 01:48:25;;;;;;;69.55;27.33;;;;;;;;;;5117037;28;20019;-75
2022/12/08 01:51:11;;;;;;;69.47;27.38;;;;;;;;;;5103096;28;20019;-75
2022/12/08 01:53:57;;;;;;;69.82;27.92;;;;;;;;;;5117208;28;20012;-74
2022/12/08 01:56:49;;;;;;;62.95;26.85;;;;;;;;;;5117280;28;20080;-75
2022/12/08 01:59:37;;;;;;;70.13;27.50;;;;;;;;;;5103391;28;20462;-76
2022/12/08 02:02:24;;;;;;;67.68;27.65;;;;;;;;;;5117435;28;20495;-75
2022/12/08 02:05:10;;;;;;;69.32;27.38;;;;;;;;;;5117379;28;20030;-74
2022/12/08 02:07:56;;;;;;;72.10;28.02;;;;;;;;;;5119181;28;20007;-74
2022/12/08 02:10:42;;;;;;;72.32;28.30;;;;;;;;;;5121665;28;20103;-74
2022/12/08 02:13:27;;;;;;;80.75;28.17;;;;;;;;;;5117190;28;20441;-75
2022/12/08 02:16:13;;;;;;;74.53;27.40;;;;;;;;;;5116633;28;20027;-74
2022/12/08 02:19:04;;;;;;;91.45;30.05;;;;;;;;;;5116692;28;20020;-74
2022/12/08 02:22:18;;;;;;;87.13;28.92;;;;;;;;;;5116591;28;20034;-75
2022/12/08 02:25:10;;;;;;;84.97;30.48;;;;;;;;;;5110095;28;20081;-75
2022/12/08 02:27:55;;;;;;;74.72;28.98;;;;;;;;;;5116810;28;20084;-75
2022/12/08 02:31:00;;;;;;;66.90;26.90;;;;;;;;;;5107678;28;20020;-75
2022/12/08 02:33:45;;;;;;;73.25;27.77;;;;;;;;;;5117233;28;20436;-74
2022/12/08 02:36:36;;;;;;;68.05;27.90;;;;;;;;;;5116190;28;20051;-75
2022/12/08 02:39:22;;;;;;;70.43;26.95;;;;;;;;;;5101982;28;20111;-74
2022/12/08 02:42:12;;;;;;;71.65;26.80;;;;;;;;;;5116482;28;20052;-74
2022/12/08 02:45:05;;;;;;;80.88;27.90;;;;;;;;;;5101651;28;20025;-73
2022/12/08 02:47:51;;;;;;;77.78;28.63;;;;;;;;;;5116227;28;20363;-73
2022/12/08 02:50:36;;;;;;;71.85;28.25;;;;;;;;;;5115736;28;20008;-75
2022/12/08 02:53:22;;;;;;;73.05;27.27;;;;;;;;;;5115977;28;20030;-74
2022/12/08 02:56:26;;;;;;;65.47;25.08;;;;;;;;;;5101453;28;20352;-75
2022/12/08 02:59:12;;;;;;;65.15;26.10;;;;;;;;;;5116127;28;20065;-75
2022/12/08 03:02:04;;;;;;;69.00;26.77;;;;;;;;;;5100816;28;20375;-75
2022/12/08 03:05:01;;;;;;;62.38;24.40;;;;;;;;;;5115238;28;20378;-75
2022/12/08 03:07:52;;;;;;;66.28;26.50;;;;;;;;;;5114905;28;20088;-75
2022/12/08 03:10:51;;;;;;;74.60;27.38;;;;;;;;;;5115714;28;20345;-75
2022/12/08 03:13:48;;;;;;;83.93;28.70;;;;;;;;;;5115714;28;20012;-75
2022/12/08 03:16:35;;;;;;;64.43;25.77;;;;;;;;;;5101168;28;20015;-73
2022/12/08 03:19:33;;;;;;;67.63;26.42;;;;;;;;;;5115815;28;20038;-75
2022/12/08 03:22:20;;;;;;;59.60;25.15;;;;;;;;;;5115228;28;20043;-74
2022/12/08 03:25:06;;;;;;;56.80;24.65;;;;;;;;;;5102054;28;20012;-74
2022/12/08 03:27:52;;;;;;;62.45;25.15;;;;;;;;;;5101982;28;20041;-75
2022/12/08 03:30:39;;;;;;;62.25;25.20;;;;;;;;;;5100307;28;20447;-73
2022/12/08 03:33:29;;;;;;;52.95;22.92;;;;;;;;;;5100365;28;20019;-74
2022/12/08 03:36:15;;;;;;;55.35;24.13;;;;;;;;;;5115238;28;20110;-73
2022/12/08 03:39:01;;;;;;;56.45;22.67;;;;;;;;;;5101506;28;20024;-74
2022/12/08 03:41:46;;;;;;;59.30;23.23;;;;;;;;;;5115140;28;20408;-75
2022/12/08 03:44:32;;;;;;;56.40;23.17;;;;;;;;;;5114628;28;20016;-74
2022/12/08 03:47:17;;;;;;;64.15;24.83;;;;;;;;;;5114566;28;20352;-75
2022/12/08 03:50:03;;;;;;;61.25;24.63;;;;;;;;;;5115317;28;20015;-74
2022/12/08 03:52:49;;;;;;;60.35;23.35;;;;;;;;;;5101377;28;20053;-74
2022/12/08 03:55:34;;;;;;;64.68;24.25;;;;;;;;;;5101271;28;20019;-74
2022/12/08 03:58:20;;;;;;;61.75;24.50;;;;;;;;;;5101118;28;20394;-75
2022/12/08 04:01:06;;;;;;;56.53;22.92;;;;;;;;;;5100281;28;20085;-75
2022/12/08 04:03:52;;;;;;;57.78;22.35;;;;;;;;;;5115049;28;20065;-75
2022/12/08 04:06:37;;;;;;;51.95;21.77;;;;;;;;;;5114350;28;20451;-75
2022/12/08 04:09:23;;;;;;;51.75;21.75;;;;;;;;;;5100100;28;20030;-75
2022/12/08 04:12:08;;;;;;;55.33;22.38;;;;;;;;;;5114867;28;20471;-75
2022/12/08 04:14:54;;;;;;;57.13;23.15;;;;;;;;;;5114756;28;20471;-75
2022/12/08 04:17:40;;;;;;;55.65;23.25;;;;;;;;;;5114333;28;20023;-74
2022/12/08 04:20:25;;;;;;;53.00;23.35;;;;;;;;;;5115706;28;20027;-75
2022/12/08 04:23:11;;;;;;;54.78;22.63;;;;;;;;;;5099759;28;20020;-75
2022/12/08 04:25:57;;;;;;;53.08;22.80;;;;;;;;;;5100549;28;20027;-75
2022/12/08 04:28:42;;;;;;;57.55;23.85;;;;;;;;;;5114511;28;20023;-75
2022/12/08 04:31:28;;;;;;;58.28;24.42;;;;;;;;;;5100220;28;20448;-75
2022/12/08 04:34:14;;;;;;;50.10;22.13;;;;;;;;;;5099988;28;20023;-74
2022/12/08 04:36:59;;;;;;;44.55;21.75;;;;;;;;;;5113583;28;20044;-74
2022/12/08 04:39:45;;;;;;;53.65;23.58;;;;;;;;;;5114699;28;20051;-76
2022/12/08 04:42:30;;;;;;;47.20;22.50;;;;;;;;;;5099744;28;20019;-75
2022/12/08 04:45:16;;;;;;;48.97;21.23;;;;;;;;;;5114575;28;20051;-75
2022/12/08 04:48:02;;;;;;;44.28;19.92;;;;;;;;;;5099944;28;20019;-76
2022/12/08 04:50:47;;;;;;;40.67;19.45;;;;;;;;;;5114323;28;20012;-76
2022/12/08 04:53:33;;;;;;;40.70;19.98;;;;;;;;;;5115717;28;20035;-75
2022/12/08 04:56:18;;;;;;;40.85;19.80;;;;;;;;;;5099327;28;20016;-75
2022/12/08 04:59:04;;;;;;;44.35;20.80;;;;;;;;;;5099710;28;20371;-76
2022/12/08 05:01:50;;;;;;;39.33;19.20;;;;;;;;;;5113859;28;20023;-75
2022/12/08 05:04:35;;;;;;;37.63;19.45;;;;;;;;;;5114607;28;20161;-74
2022/12/08 05:07:21;;;;;;;40.65;18.65;;;;;;;;;;5099686;28;20023;-75
2022/12/08 05:10:07;;;;;;;38.80;19.67;;;;;;;;;;5114545;28;20027;-74
2022/12/08 05:12:52;;;;;;;41.08;19.33;;;;;;;;;;5114509;28;20025;-75
2022/12/08 05:15:38;;;;;;;41.00;20.50;;;;;;;;;;5114315;28;20447;-75
2022/12/08 05:18:24;;;;;;;40.45;19.58;;;;;;;;;;5099250;28;20403;-72
2022/12/08 05:21:09;;;;;;;39.25;20.92;;;;;;;;;;5113933;28;20047;-71
2022/12/08 05:23:55;;;;;;;38.50;20.65;;;;;;;;;;5114873;28;20028;-75
2022/12/08 05:26:40;;;;;;;38.58;21.65;;;;;;;;;;5115119;28;20107;-74
2022/12/08 05:29:26;;;;;;;35.10;18.60;;;;;;;;;;5117866;28;20094;-75
2022/12/08 05:32:12;;;;;;;33.42;18.80;;;;;;;;;;5119404;27;20062;-74
2022/12/08 05:34:57;;;;;;;35.90;20.27;;;;;;;;;;5103794;28;20113;-74
2022/12/08 05:37:43;;;;;;;32.80;18.52;;;;;;;;;;5103905;28;20464;-75
2022/12/08 05:40:29;;;;;;;35.63;18.70;;;;;;;;;;5103861;28;20054;-73
2022/12/08 05:43:14;;;;;;;38.83;20.77;;;;;;;;;;5117485;28;20039;-75
2022/12/08 05:46:00;;;;;;;41.92;21.45;;;;;;;;;;5103515;28;20019;-74
2022/12/08 05:48:45;;;;;;;38.63;19.75;;;;;;;;;;5102166;28;20030;-75
2022/12/08 05:51:31;;;;;;;35.60;19.35;;;;;;;;;;5103745;28;20023;-75
2022/12/08 05:54:17;;;;;;;36.13;19.42;;;;;;;;;;5103059;28;20024;-75
2022/12/08 05:57:03;;;;;;;39.55;19.85;;;;;;;;;;5117795;28;20023;-75
2022/12/08 05:59:48;;;;;;;37.22;19.52;;;;;;;;;;5118210;28;20107;-75
2022/12/08 06:02:34;;;;;;;39.08;20.25;;;;;;;;;;5117246;28;20039;-76
2022/12/08 06:05:20;;;;;;;39.78;22.83;;;;;;;;;;5102458;28;20032;-76
2022/12/08 06:08:05;;;;;;;39.65;21.52;;;;;;;;;;5116640;28;20027;-75
2022/12/08 06:10:51;;;;;;;37.22;20.83;;;;;;;;;;5116763;28;20439;-74
2022/12/08 06:13:36;;;;;;;36.13;20.98;;;;;;;;;;5116798;28;20039;-76
2022/12/08 06:16:22;;;;;;;33.80;19.38;;;;;;;;;;5116999;28;20477;-75
2022/12/08 06:19:08;;;;;;;35.13;18.02;;;;;;;;;;5117180;28;20112;-75
2022/12/08 06:21:54;;;;;;;31.38;16.80;;;;;;;;;;5102053;28;20389;-75
2022/12/08 06:24:39;;;;;;;32.72;18.63;;;;;;;;;;5101972;28;20035;-76
2022/12/08 06:27:25;;;;;;;35.47;18.75;;;;;;;;;;5116625;28;20027;-75
2022/12/08 06:30:10;;;;;;;33.70;19.17;;;;;;;;;;5102275;28;20019;-75
2022/12/08 06:32:56;;;;;;;34.72;19.27;;;;;;;;;;5116633;28;20099;-75
2022/12/08 06:35:42;;;;;;;36.67;20.58;;;;;;;;;;5101342;28;20019;-75
2022/12/08 06:38:27;;;;;;;35.13;20.27;;;;;;;;;;5095512;28;20047;-74
2022/12/08 06:41:13;;;;;;;37.90;20.05;;;;;;;;;;5096435;28;20452;-74
2022/12/08 06:43:59;;;;;;;39.65;21.05;;;;;;;;;;5096525;28;20023;-74
2022/12/08 06:46:44;;;;;;;42.53;22.30;;;;;;;;;;5081619;28;20463;-75
2022/12/08 06:49:30;;;;;;;41.28;22.33;;;;;;;;;;5096024;28;20031;-75
2022/12/08 06:52:16;;;;;;;43.50;21.35;;;;;;;;;;5095622;28;20099;-76
2022/12/08 06:55:01;;;;;;;40.15;19.33;;;;;;;;;;5081299;28;20024;-75
2022/12/08 06:57:47;;;;;;;34.25;17.63;;;;;;;;;;5096156;28;20045;-75
2022/12/08 07:00:32;;;;;;;35.05;17.80;;;;;;;;;;5095598;28;20085;-75
2022/12/08 07:03:18;;;;;;;34.75;16.40;;;;;;;;;;5081748;28;20035;-76
2022/12/08 07:06:04;;;;;;;33.05;15.75;;;;;;;;;;5095987;28;20036;-76
2022/12/08 07:08:50;;;;;;;32.90;16.55;;;;;;;;;;5094809;28;20033;-75
2022/12/08 07:11:37;;;;;;;38.13;17.58;;;;;;;;;;5096711;28;20026;-75
2022/12/08 07:14:23;;;;;;;41.33;19.35;;;;;;;;;;5105844;28;20079;-76
2022/12/08 07:17:09;;;;;;;40.88;18.55;;;;;;;;;;5094975;28;20103;-75
2022/12/08 07:19:54;;;;;;;43.75;19.10;;;;;;;;;;5080326;28;20039;-75
2022/12/08 07:22:40;;;;;;;42.85;20.15;;;;;;;;;;5094818;28;20020;-75
2022/12/08 07:25:26;;;;;;;52.50;21.45;;;;;;;;;;5095185;28;20016;-75
2022/12/08 07:28:11;;;;;;;45.83;21.10;;;;;;;;;;5094230;28;20016;-75
2022/12/08 07:30:57;;;;;;;44.45;19.77;;;;;;;;;;5094952;28;20089;-76
2022/12/08 07:33:43;;;;;;;50.58;20.80;;;;;;;;;;5095039;28;20116;-75
2022/12/08 07:36:28;;;;;;;49.25;21.55;;;;;;;;;;5083154;28;20048;-74
2022/12/08 07:39:14;;;;;;;50.75;21.30;;;;;;;;;;5113811;28;20019;-75
2022/12/08 07:42:00;;;;;;;46.85;21.65;;;;;;;;;;5113780;28;20030;-76
2022/12/08 07:44:45;;;;;;;47.05;21.73;;;;;;;;;;5114198;28;20020;-75
2022/12/08 07:47:31;;;;;;;53.58;23.58;;;;;;;;;;5113653;28;20011;-76
2022/12/08 07:50:16;;;;;;;49.60;22.98;;;;;;;;;;5113484;28;20012;-75
2022/12/08 07:53:02;;;;;;;46.50;21.63;;;;;;;;;;5113153;28;20023;-74
2022/12/08 07:55:48;;;;;;;45.83;21.75;;;;;;;;;;5113152;28;20065;-76
2022/12/08 07:58:33;;;;;;;50.47;22.58;;;;;;;;;;5113998;28;20039;-75
2022/12/08 08:01:29;;;;;;;46.17;21.00;;;;;;;;;;5113751;28;20130;-76
2022/12/08 08:04:14;;;;;;;43.25;19.98;;;;;;;;;;5114222;28;20027;-75
2022/12/08 08:07:00;;;;;;;41.78;20.05;;;;;;;;;;5113127;28;20019;-76
2022/12/08 08:09:46;;;;;;;53.47;23.40;;;;;;;;;;5112744;28;20018;-75
2022/12/08 08:12:31;;;;;;;40.90;19.88;;;;;;;;;;5112735;28;20393;-75
2022/12/08 08:15:19;;;;;;;43.67;20.98;;;;;;;;;;5114227;28;20180;-76
2022/12/08 08:18:07;;;;;;;42.45;19.73;;;;;;;;;;5116027;28;20054;-76
2022/12/08 08:20:56;;;;;;;37.25;18.70;;;;;;;;;;5117444;28;20023;-76
2022/12/08 08:23:42;;;;;;;38.83;17.70;;;;;;;;;;5116088;28;20043;-76
2022/12/08 08:26:27;;;;;;;38.83;19.05;;;;;;;;;;5114070;28;20051;-75
2022/12/08 08:29:13;;;;;;;39.92;18.85;;;;;;;;;;5113337;28;20023;-75
2022/12/08 08:31:58;;;;;;;34.97;16.95;;;;;;;;;;5112343;28;20061;-75
2022/12/08 08:34:44;;;;;;;40.40;18.10;;;;;;;;;;5112947;28;20039;-75
2022/12/08 08:37:32;;;;;;;35.65;17.75;;;;;;;;;;5112795;28;20365;-76
2022/12/08 08:40:18;;;;;;;36.42;18.25;;;;;;;;;;5113767;28;20353;-75
2022/12/08 08:43:04;;;;;;;37.97;18.40;;;;;;;;;;5113608;28;20412;-75
2022/12/08 08:45:50;;;;;;;38.88;18.77;;;;;;;;;;5113680;28;20412;-75
2022/12/08 08:48:36;;;;;;;37.67;18.85;;;;;;;;;;5113894;28;20008;-75
2022/12/08 08:51:22;;;;;;;39.53;18.77;;;;;;;;;;5112838;28;20034;-76
2022/12/08 08:54:07;;;;;;;42.33;19.55;;;;;;;;;;5113755;28;20038;-75
2022/12/08 08:56:53;;;;;;;45.65;20.25;;;;;;;;;;5112554;28;20084;-75
2022/12/08 08:59:39;;;;;;;44.38;20.45;;;;;;;;;;5112673;28;20012;-76
2022/12/08 09:02:24;;;;;;;48.60;21.33;;;;;;;;;;5115542;28;20020;-75
2022/12/08 09:05:12;;;;;;;47.40;22.20;;;;;;;;;;5117481;28;20019;-75
2022/12/08 09:07:58;;;;;;;94.63;43.22;;;;;;;;;;5116573;28;20019;-75
2022/12/08 09:10:44;;;;;;;64.43;33.08;;;;;;;;;;5103746;28;20015;-76
2022/12/08 09:13:29;;;;;;;45.55;21.35;;;;;;;;;;5118173;28;20428;-74
2022/12/08 09:16:15;;;;;;;42.30;19.98;;;;;;;;;;5104682;28;20053;-76
2022/12/08 09:19:01;;;;;;;42.92;21.70;;;;;;;;;;5103982;28;20016;-76
2022/12/08 09:21:47;;;;;;;41.63;20.42;;;;;;;;;;5119349;28;20016;-75
2022/12/08 09:24:32;;;;;;;48.08;22.20;;;;;;;;;;5118622;28;20012;-75
2022/12/08 09:27:18;;;;;;;44.63;21.27;;;;;;;;;;5118504;28;20384;-75
2022/12/08 09:30:04;;;;;;;44.03;21.23;;;;;;;;;;5120375;28;20069;-75
2022/12/08 09:32:52;;;;;;;50.70;23.30;;;;;;;;;;5117355;28;20348;-75
2022/12/08 09:35:37;;;;;;;57.08;24.25;;;;;;;;;;5106019;28;20042;-79
2022/12/08 09:38:23;;;;;;;49.63;24.20;;;;;;;;;;5122677;28;20039;-76
2022/12/08 09:41:27;;;;;;;56.65;25.40;;;;;;;;;;5138756;28;20020;-75
2022/12/08 09:44:31;;;;;;;51.90;25.55;;;;;;;;;;5135561;28;20023;-75
2022/12/08 09:47:20;;;;;;;51.70;25.60;;;;;;;;;;5122576;28;20082;-74
2022/12/08 09:50:05;;;;;;;57.05;25.38;;;;;;;;;;5133014;28;20016;-75
2022/12/08 09:52:57;;;;;;;53.47;28.02;;;;;;;;;;5122060;28;20024;-74
2022/12/08 09:55:45;;;;;;;52.72;26.27;;;;;;;;;;5134869;28;20061;-74
2022/12/08 09:58:36;;;;;;;55.88;26.80;;;;;;;;;;5136287;28;20020;-76
2022/12/08 10:01:25;;;;;;;59.00;29.00;;;;;;;;;;5135760;28;20051;-74
2022/12/08 10:04:20;;;;;;;62.42;28.27;;;;;;;;;;5133867;28;20016;-74
2022/12/08 10:07:12;;;;;;;56.90;28.15;;;;;;;;;;5134506;28;20035;-74
2022/12/08 10:10:04;;;;;;;57.45;29.25;;;;;;;;;;5129469;28;20008;-74
2022/12/08 10:12:50;;;;;;;67.55;29.90;;;;;;;;;;5117575;28;20098;-75
2022/12/08 10:15:39;;;;;;;59.92;29.65;;;;;;;;;;5117760;28;20076;-75
2022/12/08 10:18:27;;;;;;;62.80;30.13;;;;;;;;;;5104293;28;20020;-75
2022/12/08 10:21:14;;;;;;;70.25;32.58;;;;;;;;;;5103495;28;20451;-76
2022/12/08 10:24:07;;;;;;;66.18;32.53;;;;;;;;;;5120862;28;20049;-76
2022/12/08 10:26:52;;;;;;;66.68;31.33;;;;;;;;;;5118575;28;20359;-74
2022/12/08 10:29:41;;;;;;;62.88;31.17;;;;;;;;;;5120200;28;20344;-75
2022/12/08 10:32:33;;;;;;;59.22;29.15;;;;;;;;;;5125555;28;20394;-75
2022/12/08 10:38:35;;;;;;;58.25;29.08;;;;;;;;;;5101157;28;20055;-74
2022/12/08 10:41:21;;;;;;;69.22;30.88;;;;;;;;;;5096382;28;20078;-75
2022/12/08 10:44:10;;;;;;;60.65;26.27;;;;;;;;;;5096656;28;20024;-74
2022/12/08 10:46:56;;;;;;;62.03;27.98;;;;;;;;;;5095678;28;20012;-75
2022/12/08 10:49:42;;;;;;;67.47;28.48;;;;;;;;;;5081844;28;20562;-75
2022/12/08 10:52:27;;;;;;;64.15;29.55;;;;;;;;;;5081701;28;20028;-75
2022/12/08 10:55:16;;;;;;;59.75;28.98;;;;;;;;;;5083376;28;20063;-74
2022/12/08 10:58:04;;;;;;;58.55;27.60;;;;;;;;;;5083240;28;20032;-74
2022/12/08 11:00:52;;;;;;;60.90;28.63;;;;;;;;;;5095864;28;20034;-75
2022/12/08 11:03:48;;;;;;;57.72;26.15;;;;;;;;;;5096146;28;20116;-73
2022/12/08 11:06:35;;;;;;;55.47;25.85;;;;;;;;;;5081922;28;20035;-74
2022/12/08 11:09:22;;;;;;;54.75;26.17;;;;;;;;;;5082338;28;20444;-75
2022/12/08 11:12:19;;;;;;;63.10;28.85;;;;;;;;;;5090471;28;20024;-73
2022/12/08 11:15:05;;;;;;;55.22;26.90;;;;;;;;;;5103499;28;20459;-73
2022/12/08 11:17:59;;;;;;;65.10;28.95;;;;;;;;;;5087206;28;20048;-74
2022/12/08 11:20:44;;;;;;;67.63;32.70;;;;;;;;;;5104433;28;20077;-72
2022/12/08 11:23:36;;;;;;;75.85;32.80;;;;;;;;;;5103284;28;20012;-75
2022/12/08 11:26:22;;;;;;;73.13;34.88;;;;;;;;;;5102912;28;20013;-73
2022/12/08 11:29:10;;;;;;;70.93;31.70;;;;;;;;;;5089090;28;20048;-72
2022/12/08 11:32:03;;;;;;;64.88;30.80;;;;;;;;;;5100701;28;20028;-73
2022/12/08 11:34:59;;;;;;;72.15;32.75;;;;;;;;;;5109912;28;20028;-73
2022/12/08 11:37:45;;;;;;;69.35;32.67;;;;;;;;;;5103021;28;20195;-74
2022/12/08 11:40:33;;;;;;;70.55;33.05;;;;;;;;;;5082204;28;20084;-74
2022/12/08 11:43:34;;;;;;;68.50;31.67;;;;;;;;;;5094859;28;20051;-73
2022/12/08 11:46:24;;;;;;;61.75;30.48;;;;;;;;;;5094951;28;20110;-72
2022/12/08 11:49:12;;;;;;;59.58;31.08;;;;;;;;;;5079991;28;20063;-73
2022/12/08 11:52:13;;;;;;;67.47;33.08;;;;;;;;;;5094889;28;20478;-74
2022/12/08 11:55:07;;;;;;;64.38;33.75;;;;;;;;;;5094883;28;20032;-73
2022/12/08 11:58:01;;;;;;;65.72;33.70;;;;;;;;;;5080638;28;20024;-74
2022/12/08 12:00:47;;;;;;;68.95;34.40;;;;;;;;;;5095718;28;20142;-73
2022/12/08 12:03:39;;;;;;;73.30;33.90;;;;;;;;;;5093680;28;20094;-73
2022/12/08 12:06:39;;;;;;;67.13;34.00;;;;;;;;;;5093829;28;20024;-73
2022/12/08 12:09:43;;;;;;;70.57;34.42;;;;;;;;;;5094082;28;20024;-73
2022/12/08 12:12:29;;;;;;;74.05;34.70;;;;;;;;;;5094125;28;20115;-72
2022/12/08 12:15:33;;;;;;;70.78;33.53;;;;;;;;;;5093799;28;20020;-73
2022/12/08 12:18:37;;;;;;;67.75;30.85;;;;;;;;;;5094000;28;20020;-73
2022/12/08 12:21:38;;;;;;;67.13;32.53;;;;;;;;;;5093652;28;20347;-74
2022/12/08 12:24:32;;;;;;;68.65;32.97;;;;;;;;;;5093674;28;20020;-73
2022/12/08 12:27:26;;;;;;;63.42;32.40;;;;;;;;;;5094853;28;20124;-74
2022/12/08 12:30:23;;;;;;;70.43;33.03;;;;;;;;;;5094183;28;20468;-73
2022/12/08 12:33:12;;;;;;;61.63;31.08;;;;;;;;;;5093233;28;20039;-74
2022/12/08 12:36:01;;;;;;;69.70;34.45;;;;;;;;;;5093172;28;20024;-72
2022/12/08 12:39:00;;;;;;;59.08;32.05;;;;;;;;;;5097740;28;20167;-74
2022/12/08 12:41:48;;;;;;;67.57;32.30;;;;;;;;;;5097482;28;20071;-74
2022/12/08 12:44:34;;;;;;;70.18;33.72;;;;;;;;;;5097641;28;20383;-74
2022/12/08 12:47:39;;;;;;;61.35;33.00;;;;;;;;;;5097377;28;20055;-73
2022/12/08 12:50:47;;;;;;;63.38;32.47;;;;;;;;;;5097417;28;20051;-74
2022/12/08 12:53:36;;;;;;;65.93;32.35;;;;;;;;;;5097596;28;20046;-73
2022/12/08 12:56:40;;;;;;;62.15;31.92;;;;;;;;;;5097560;28;20383;-73
2022/12/08 12:59:45;;;;;;;68.50;36.28;;;;;;;;;;5097950;28;20019;-72
2022/12/08 13:02:31;;;;;;;71.45;34.13;;;;;;;;;;5098433;28;20127;-73
2022/12/08 13:05:27;;;;;;;63.35;33.90;;;;;;;;;;5097286;28;20430;-72
2022/12/08 13:08:23;;;;;;;64.50;33.83;;;;;;;;;;5096268;28;20454;-74
2022/12/08 13:11:09;;;;;;;64.65;32.42;;;;;;;;;;5081910;28;20028;-73
2022/12/08 13:13:56;;;;;;;57.67;30.63;;;;;;;;;;5083515;28;20031;-74
2022/12/08 13:16:42;;;;;;;48.33;28.30;;;;;;;;;;5097687;28;20020;-73
2022/12/08 13:19:31;;;;;;;56.67;29.73;;;;;;;;;;5097875;28;20020;-74
2022/12/08 13:25:49;;;;;;;57.58;30.88;;;;;;;;;;5097069;28;20031;-74
2022/12/08 13:28:53;;;;;;;58.92;30.90;;;;;;;;;;5097326;28;20120;-75
2022/12/08 13:31:49;;;;;;;58.28;29.58;;;;;;;;;;5098150;28;20024;-75
2022/12/08 13:34:47;;;;;;;50.13;28.13;;;;;;;;;;5098812;28;20475;-74
2022/12/08 13:37:43;;;;;;;61.33;33.22;;;;;;;;;;5110289;28;20491;-74
2022/12/08 13:40:30;;;;;;;58.10;30.02;;;;;;;;;;5103000;28;20053;-74
2022/12/08 13:43:28;;;;;;;57.20;30.15;;;;;;;;;;5118133;28;20026;-74
2022/12/08 13:46:16;;;;;;;57.22;30.60;;;;;;;;;;5089524;28;20460;-74
2022/12/08 13:49:01;;;;;;;59.72;30.10;;;;;;;;;;5116438;28;20052;-75
2022/12/08 13:51:51;;;;;;;65.30;29.00;;;;;;;;;;5118050;28;20039;-74
2022/12/08 13:54:39;;;;;;;59.13;29.98;;;;;;;;;;5118376;28;20535;-74
2022/12/08 13:57:25;;;;;;;58.95;30.92;;;;;;;;;;5102156;28;20389;-75
2022/12/08 14:00:14;;;;;;;58.58;29.58;;;;;;;;;;5117004;28;20385;-74
2022/12/08 14:03:00;;;;;;;62.53;29.92;;;;;;;;;;5116524;28;20026;-74
2022/12/08 14:05:46;;;;;;;49.45;26.48;;;;;;;;;;5102027;28;20016;-74
2022/12/08 14:08:33;;;;;;;52.97;27.55;;;;;;;;;;5102164;28;20019;-73
2022/12/08 14:11:46;;;;;;;52.17;28.90;;;;;;;;;;5117790;28;20071;-74
2022/12/08 14:14:39;;;;;;;56.50;28.05;;;;;;;;;;5094318;28;20106;-72
2022/12/08 14:17:24;;;;;;;56.40;29.48;;;;;;;;;;5102714;28;20016;-75
2022/12/08 14:20:10;;;;;;;58.17;28.80;;;;;;;;;;5116176;28;20020;-76
2022/12/08 14:22:57;;;;;;;68.40;32.38;;;;;;;;;;5116532;28;20113;-76
2022/12/08 14:25:45;;;;;;;67.93;30.95;;;;;;;;;;5102225;28;20112;-75
2022/12/08 14:28:32;;;;;;;51.75;24.98;;;;;;;;;;5116066;28;20026;-76
2022/12/08 14:31:17;;;;;;;51.53;25.45;;;;;;;;;;5102243;28;20043;-76
2022/12/08 14:34:03;;;;;;;46.92;23.77;;;;;;;;;;5117442;28;20012;-75
2022/12/08 14:36:49;;;;;;;44.40;22.92;;;;;;;;;;5117119;28;20043;-75
2022/12/08 14:39:34;;;;;;;45.42;21.35;;;;;;;;;;5117223;28;20460;-75
2022/12/08 14:42:24;;;;;;;43.35;19.85;;;;;;;;;;5117283;28;20031;-76
2022/12/08 14:45:11;;;;;;;42.10;20.80;;;;;;;;;;5117032;28;20165;-75
2022/12/08 14:48:16;;;;;;;43.83;20.33;;;;;;;;;;5101502;28;20104;-76
2022/12/08 14:51:02;;;;;;;37.75;19.63;;;;;;;;;;5117142;28;20027;-77
2022/12/08 14:53:50;;;;;;;40.55;19.75;;;;;;;;;;5102018;28;20081;-75
2022/12/08 14:56:36;;;;;;;42.13;20.67;;;;;;;;;;5101777;28;20538;-75
2022/12/08 14:59:24;;;;;;;38.33;18.05;;;;;;;;;;5114797;28;20020;-76
2022/12/08 15:02:10;;;;;;;35.80;18.33;;;;;;;;;;5115726;28;20024;-74
2022/12/08 15:05:10;;;;;;;38.22;18.73;;;;;;;;;;5115651;28;20015;-79
2022/12/08 15:08:01;;;;;;;37.50;18.50;;;;;;;;;;5101702;28;20407;-76
2022/12/08 15:11:06;;;;;;;32.45;17.48;;;;;;;;;;5116926;28;20078;-76
2022/12/08 15:13:53;;;;;;;31.95;16.67;;;;;;;;;;5117183;28;20031;-78
2022/12/08 15:16:41;;;;;;;32.58;16.60;;;;;;;;;;5102455;28;20051;-79
2022/12/08 15:19:27;;;;;;;36.92;18.33;;;;;;;;;;5119075;28;20135;-79
2022/12/08 15:22:17;;;;;;;38.95;18.45;;;;;;;;;;5116524;28;20023;-78
2022/12/08 15:25:03;;;;;;;41.97;19.40;;;;;;;;;;5115738;28;20016;-73
2022/12/08 15:27:49;;;;;;;35.50;18.58;;;;;;;;;;5115737;28;20085;-73
2022/12/08 15:30:34;;;;;;;39.38;19.05;;;;;;;;;;5115950;28;20435;-80
2022/12/08 15:33:20;;;;;;;38.08;19.33;;;;;;;;;;5115255;28;20440;-76
2022/12/08 15:36:06;;;;;;;35.28;18.90;;;;;;;;;;5100998;28;20089;-76
2022/12/08 15:38:52;;;;;;;38.05;19.98;;;;;;;;;;5115633;28;20038;-76
2022/12/08 15:41:37;;;;;;;43.15;22.02;;;;;;;;;;5116183;28;20019;-75
2022/12/08 15:44:23;;;;;;;43.42;21.77;;;;;;;;;;5115288;28;20452;-77
2022/12/08 15:47:13;;;;;;;40.65;21.00;;;;;;;;;;5101302;28;20024;-75
2022/12/08 15:49:59;;;;;;;45.45;24.05;;;;;;;;;;5100137;28;20020;-76
2022/12/08 15:52:45;;;;;;;41.38;21.80;;;;;;;;;;5115376;28;20439;-76
2022/12/08 15:55:31;;;;;;;41.83;20.75;;;;;;;;;;5116146;28;20024;-74
2022/12/08 15:58:21;;;;;;;50.63;25.98;;;;;;;;;;5114685;28;20088;-76
2022/12/08 16:01:07;;;;;;;39.28;21.65;;;;;;;;;;5115070;28;20463;-76
2022/12/08 16:03:52;;;;;;;37.25;20.20;;;;;;;;;;5114831;28;20019;-75
2022/12/08 16:06:38;;;;;;;38.35;19.48;;;;;;;;;;5115776;28;20023;-76
2022/12/08 16:09:30;;;;;;;48.60;27.33;;;;;;;;;;5108660;28;20099;-76
2022/12/08 16:15:21;;;;;;;133.75;67.03;;;;;;;;;;5115740;28;20439;-75
2022/12/08 16:18:12;;;;;;;58.20;32.85;;;;;;;;;;5102152;28;20019;-75
2022/12/08 16:20:58;;;;;;;84.22;48.28;;;;;;;;;;5120214;28;20038;-76
2022/12/08 16:23:44;;;;;;;41.28;20.50;;;;;;;;;;5108229;28;20115;-74
2022/12/08 16:26:30;;;;;;;33.50;16.95;;;;;;;;;;5114612;28;20085;-76
2022/12/08 16:29:17;;;;;;;38.08;20.45;;;;;;;;;;5099271;28;20016;-75
2022/12/08 16:32:02;;;;;;;37.00;18.95;;;;;;;;;;5100263;28;20027;-76
2022/12/08 16:34:51;;;;;;;40.42;19.23;;;;;;;;;;5099676;28;20023;-77
2022/12/08 16:37:37;;;;;;;37.28;20.58;;;;;;;;;;5105962;28;20123;-76